sensor_id;sensor_type;location;lat;lon;timestamp;P1;durP1;ratioP1;P2;durP2;ratioP2
40917;SDS011;26644;50.248;19.032;2022-09-09T00:01:28;7.93;;;5.55;;
40917;SDS011;26644;50.248;19.032;2022-09-09T00:04:39;10.50;;;6.40;;
40917;SDS011;26644;50.248;19.032;2022-09-09T00:07:43;10.82;;;6.00;;
40917;SDS011;26644;50.248;19.032;2022-09-09T00:10:48;12.65;;;6.93;;
40917;SDS011;26644;50.248;19.032;2022-09-09T00:13:55;10.10;;;6.10;;
40917;SDS011;26644;50.248;19.032;2022-09-09T00:17:04;16.30;;;7.70;;
40917;SDS011;26644;50.248;19.032;2022-09-09T00:20:13;15.48;;;8.13;;
40917;SDS011;26644;50.248;19.032;2022-09-09T00:23:20;15.70;;;6.65;;
40917;SDS011;26644;50.248;19.032;2022-09-09T00:26:28;8.90;;;5.35;;
40917;SDS011;26644;50.248;19.032;2022-09-09T00:29:38;12.32;;;6.93;;
40917;SDS011;26644;50.248;19.032;2022-09-09T00:32:43;10.88;;;6.80;;
40917;SDS011;26644;50.248;19.032;2022-09-09T00:35:47;17.20;;;7.53;;
40917;SDS011;26644;50.248;19.032;2022-09-09T00:38:52;17.40;;;9.40;;
40917;SDS011;26644;50.248;19.032;2022-09-09T00:42:04;16.50;;;8.13;;
40917;SDS011;26644;50.248;19.032;2022-09-09T00:45:19;13.00;;;7.60;;
40917;SDS011;26644;50.248;19.032;2022-09-09T00:48:37;16.80;;;6.93;;
40917;SDS011;26644;50.248;19.032;2022-09-09T00:51:54;17.52;;;8.30;;
40917;SDS011;26644;50.248;19.032;2022-09-09T00:55:06;17.02;;;7.97;;
40917;SDS011;26644;50.248;19.032;2022-09-09T00:58:16;20.73;;;10.35;;
40917;SDS011;26644;50.248;19.032;2022-09-09T01:01:18;18.90;;;9.32;;
40917;SDS011;26644;50.248;19.032;2022-09-09T01:04:22;15.32;;;8.30;;
40917;SDS011;26644;50.248;19.032;2022-09-09T01:10:36;24.20;;;11.48;;
40917;SDS011;26644;50.248;19.032;2022-09-09T01:13:47;15.43;;;7.93;;
40917;SDS011;26644;50.248;19.032;2022-09-09T01:16:54;12.98;;;7.13;;
40917;SDS011;26644;50.248;19.032;2022-09-09T01:20:03;23.00;;;9.48;;
40917;SDS011;26644;50.248;19.032;2022-09-09T01:23:38;22.52;;;10.10;;
40917;SDS011;26644;50.248;19.032;2022-09-09T01:30:01;19.08;;;9.43;;
40917;SDS011;26644;50.248;19.032;2022-09-09T01:33:04;23.30;;;9.85;;
40917;SDS011;26644;50.248;19.032;2022-09-09T01:36:06;21.30;;;9.02;;
40917;SDS011;26644;50.248;19.032;2022-09-09T01:39:20;17.08;;;8.65;;
40917;SDS011;26644;50.248;19.032;2022-09-09T01:42:31;19.35;;;9.60;;
40917;SDS011;26644;50.248;19.032;2022-09-09T01:45:33;12.75;;;5.18;;
40917;SDS011;26644;50.248;19.032;2022-09-09T01:48:36;13.18;;;5.45;;
40917;SDS011;26644;50.248;19.032;2022-09-09T01:51:42;12.95;;;5.03;;
40917;SDS011;26644;50.248;19.032;2022-09-09T01:54:47;13.80;;;6.97;;
40917;SDS011;26644;50.248;19.032;2022-09-09T01:57:56;13.68;;;5.90;;
40917;SDS011;26644;50.248;19.032;2022-09-09T02:01:13;15.85;;;5.97;;
40917;SDS011;26644;50.248;19.032;2022-09-09T02:04:24;21.75;;;14.90;;
40917;SDS011;26644;50.248;19.032;2022-09-09T02:07:41;13.77;;;11.30;;
40917;SDS011;26644;50.248;19.032;2022-09-09T02:10:59;15.10;;;11.68;;
40917;SDS011;26644;50.248;19.032;2022-09-09T02:17:36;18.27;;;10.40;;
40917;SDS011;26644;50.248;19.032;2022-09-09T02:20:47;12.85;;;11.23;;
40917;SDS011;26644;50.248;19.032;2022-09-09T02:23:49;8.63;;;7.25;;
40917;SDS011;26644;50.248;19.032;2022-09-09T02:26:54;11.27;;;6.78;;
40917;SDS011;26644;50.248;19.032;2022-09-09T02:30:00;11.25;;;7.05;;
40917;SDS011;26644;50.248;19.032;2022-09-09T02:33:16;23.08;;;16.40;;
40917;SDS011;26644;50.248;19.032;2022-09-09T02:36:22;45.40;;;22.50;;
40917;SDS011;26644;50.248;19.032;2022-09-09T02:39:28;41.25;;;21.23;;
40917;SDS011;26644;50.248;19.032;2022-09-09T02:42:29;42.10;;;21.75;;
40917;SDS011;26644;50.248;19.032;2022-09-09T02:45:36;46.40;;;23.17;;
40917;SDS011;26644;50.248;19.032;2022-09-09T02:48:47;36.65;;;21.33;;
40917;SDS011;26644;50.248;19.032;2022-09-09T02:52:00;37.42;;;20.50;;
40917;SDS011;26644;50.248;19.032;2022-09-09T02:55:06;40.75;;;21.70;;
40917;SDS011;26644;50.248;19.032;2022-09-09T02:58:14;67.78;;;29.17;;
40917;SDS011;26644;50.248;19.032;2022-09-09T03:01:23;42.00;;;22.20;;
40917;SDS011;26644;50.248;19.032;2022-09-09T03:04:25;56.70;;;23.52;;
40917;SDS011;26644;50.248;19.032;2022-09-09T03:07:27;46.42;;;23.20;;
40917;SDS011;26644;50.248;19.032;2022-09-09T03:10:29;38.00;;;21.27;;
40917;SDS011;26644;50.248;19.032;2022-09-09T03:13:32;45.40;;;20.80;;
40917;SDS011;26644;50.248;19.032;2022-09-09T03:16:36;44.63;;;20.45;;
40917;SDS011;26644;50.248;19.032;2022-09-09T03:19:38;48.03;;;22.05;;
40917;SDS011;26644;50.248;19.032;2022-09-09T03:22:42;50.80;;;22.83;;
40917;SDS011;26644;50.248;19.032;2022-09-09T03:25:48;44.10;;;22.55;;
40917;SDS011;26644;50.248;19.032;2022-09-09T03:28:55;48.83;;;22.05;;
40917;SDS011;26644;50.248;19.032;2022-09-09T03:31:59;45.80;;;21.50;;
40917;SDS011;26644;50.248;19.032;2022-09-09T03:35:02;48.65;;;22.83;;
40917;SDS011;26644;50.248;19.032;2022-09-09T03:38:05;46.05;;;22.73;;
40917;SDS011;26644;50.248;19.032;2022-09-09T03:41:08;46.42;;;22.98;;
40917;SDS011;26644;50.248;19.032;2022-09-09T03:44:11;39.78;;;22.10;;
40917;SDS011;26644;50.248;19.032;2022-09-09T03:47:17;53.58;;;22.75;;
40917;SDS011;26644;50.248;19.032;2022-09-09T03:50:19;40.38;;;22.60;;
40917;SDS011;26644;50.248;19.032;2022-09-09T03:53:22;45.50;;;22.42;;
40917;SDS011;26644;50.248;19.032;2022-09-09T03:56:27;47.10;;;23.38;;
40917;SDS011;26644;50.248;19.032;2022-09-09T03:59:30;47.42;;;22.38;;
40917;SDS011;26644;50.248;19.032;2022-09-09T04:02:33;46.85;;;22.92;;
40917;SDS011;26644;50.248;19.032;2022-09-09T04:05:35;48.95;;;23.88;;
40917;SDS011;26644;50.248;19.032;2022-09-09T04:08:40;44.10;;;23.25;;
40917;SDS011;26644;50.248;19.032;2022-09-09T04:11:43;48.60;;;22.77;;
40917;SDS011;26644;50.248;19.032;2022-09-09T04:14:46;50.38;;;23.98;;
40917;SDS011;26644;50.248;19.032;2022-09-09T04:17:49;46.20;;;22.42;;
40917;SDS011;26644;50.248;19.032;2022-09-09T04:20:52;47.22;;;23.35;;
40917;SDS011;26644;50.248;19.032;2022-09-09T04:23:57;54.40;;;25.13;;
40917;SDS011;26644;50.248;19.032;2022-09-09T04:27:00;49.78;;;23.98;;
40917;SDS011;26644;50.248;19.032;2022-09-09T04:30:02;44.10;;;23.55;;
40917;SDS011;26644;50.248;19.032;2022-09-09T04:33:08;50.25;;;24.08;;
40917;SDS011;26644;50.248;19.032;2022-09-09T04:36:10;45.15;;;23.20;;
40917;SDS011;26644;50.248;19.032;2022-09-09T04:39:13;58.97;;;25.90;;
40917;SDS011;26644;50.248;19.032;2022-09-09T04:42:15;48.58;;;24.27;;
40917;SDS011;26644;50.248;19.032;2022-09-09T04:45:18;56.42;;;25.13;;
40917;SDS011;26644;50.248;19.032;2022-09-09T04:48:22;51.92;;;24.08;;
40917;SDS011;26644;50.248;19.032;2022-09-09T04:51:24;44.05;;;22.48;;
40917;SDS011;26644;50.248;19.032;2022-09-09T04:54:27;42.88;;;23.15;;
40917;SDS011;26644;50.248;19.032;2022-09-09T04:57:29;43.88;;;22.38;;
40917;SDS011;26644;50.248;19.032;2022-09-09T05:00:32;44.80;;;22.08;;
40917;SDS011;26644;50.248;19.032;2022-09-09T05:03:38;48.38;;;20.98;;
40917;SDS011;26644;50.248;19.032;2022-09-09T05:06:43;53.63;;;23.52;;
40917;SDS011;26644;50.248;19.032;2022-09-09T05:09:46;42.60;;;20.10;;
40917;SDS011;26644;50.248;19.032;2022-09-09T05:12:53;42.08;;;19.73;;
40917;SDS011;26644;50.248;19.032;2022-09-09T05:15:58;48.33;;;21.45;;
40917;SDS011;26644;50.248;19.032;2022-09-09T05:19:02;43.85;;;21.48;;
40917;SDS011;26644;50.248;19.032;2022-09-09T05:22:18;42.35;;;20.83;;
40917;SDS011;26644;50.248;19.032;2022-09-09T05:25:21;38.50;;;20.98;;
40917;SDS011;26644;50.248;19.032;2022-09-09T05:28:24;41.38;;;21.67;;
40917;SDS011;26644;50.248;19.032;2022-09-09T05:31:29;47.90;;;22.20;;
40917;SDS011;26644;50.248;19.032;2022-09-09T05:34:34;38.45;;;20.10;;
40917;SDS011;26644;50.248;19.032;2022-09-09T05:37:37;39.08;;;20.67;;
40917;SDS011;26644;50.248;19.032;2022-09-09T05:40:46;38.33;;;20.80;;
40917;SDS011;26644;50.248;19.032;2022-09-09T05:43:50;41.00;;;21.88;;
40917;SDS011;26644;50.248;19.032;2022-09-09T05:46:52;45.25;;;21.75;;
40917;SDS011;26644;50.248;19.032;2022-09-09T05:49:57;41.03;;;20.90;;
40917;SDS011;26644;50.248;19.032;2022-09-09T05:52:59;43.97;;;22.13;;
40917;SDS011;26644;50.248;19.032;2022-09-09T05:56:01;41.50;;;21.73;;
40917;SDS011;26644;50.248;19.032;2022-09-09T05:59:06;45.15;;;19.65;;
40917;SDS011;26644;50.248;19.032;2022-09-09T06:02:09;36.03;;;19.75;;
40917;SDS011;26644;50.248;19.032;2022-09-09T06:05:13;38.33;;;20.35;;
40917;SDS011;26644;50.248;19.032;2022-09-09T06:08:15;41.08;;;20.13;;
40917;SDS011;26644;50.248;19.032;2022-09-09T06:11:18;32.08;;;18.48;;
40917;SDS011;26644;50.248;19.032;2022-09-09T06:14:22;36.80;;;18.70;;
40917;SDS011;26644;50.248;19.032;2022-09-09T06:17:26;32.20;;;18.50;;
40917;SDS011;26644;50.248;19.032;2022-09-09T06:20:30;31.42;;;17.45;;
40917;SDS011;26644;50.248;19.032;2022-09-09T06:23:33;33.40;;;16.75;;
40917;SDS011;26644;50.248;19.032;2022-09-09T06:26:37;28.40;;;16.40;;
40917;SDS011;26644;50.248;19.032;2022-09-09T06:29:41;27.02;;;15.00;;
40917;SDS011;26644;50.248;19.032;2022-09-09T06:32:43;26.05;;;15.80;;
40917;SDS011;26644;50.248;19.032;2022-09-09T06:35:52;22.63;;;14.07;;
40917;SDS011;26644;50.248;19.032;2022-09-09T06:38:55;26.63;;;15.17;;
40917;SDS011;26644;50.248;19.032;2022-09-09T06:41:57;20.90;;;13.85;;
40917;SDS011;26644;50.248;19.032;2022-09-09T06:45:22;18.98;;;12.68;;
40917;SDS011;26644;50.248;19.032;2022-09-09T06:48:32;15.90;;;11.07;;
40917;SDS011;26644;50.248;19.032;2022-09-09T06:51:37;13.20;;;9.20;;
40917;SDS011;26644;50.248;19.032;2022-09-09T06:54:44;21.88;;;8.95;;
40917;SDS011;26644;50.248;19.032;2022-09-09T06:57:47;10.73;;;7.18;;
40917;SDS011;26644;50.248;19.032;2022-09-09T07:01:01;13.07;;;7.38;;
40917;SDS011;26644;50.248;19.032;2022-09-09T07:04:04;9.32;;;6.13;;
40917;SDS011;26644;50.248;19.032;2022-09-09T07:07:11;8.18;;;5.45;;
40917;SDS011;26644;50.248;19.032;2022-09-09T07:10:15;9.55;;;5.72;;
40917;SDS011;26644;50.248;19.032;2022-09-09T07:13:19;86.18;;;21.88;;
40917;SDS011;26644;50.248;19.032;2022-09-09T07:16:26;13.60;;;6.25;;
40917;SDS011;26644;50.248;19.032;2022-09-09T07:19:31;5.15;;;4.47;;
40917;SDS011;26644;50.248;19.032;2022-09-09T07:22:37;8.70;;;6.03;;
40917;SDS011;26644;50.248;19.032;2022-09-09T07:25:43;8.02;;;4.45;;
40917;SDS011;26644;50.248;19.032;2022-09-09T07:28:46;7.90;;;5.03;;
40917;SDS011;26644;50.248;19.032;2022-09-09T07:31:49;5.93;;;4.18;;
40917;SDS011;26644;50.248;19.032;2022-09-09T07:34:58;8.52;;;4.90;;
40917;SDS011;26644;50.248;19.032;2022-09-09T07:38:02;5.72;;;4.32;;
40917;SDS011;26644;50.248;19.032;2022-09-09T07:41:07;6.03;;;3.60;;
40917;SDS011;26644;50.248;19.032;2022-09-09T07:44:13;6.10;;;3.63;;
40917;SDS011;26644;50.248;19.032;2022-09-09T07:47:17;6.97;;;3.65;;
40917;SDS011;26644;50.248;19.032;2022-09-09T07:50:23;4.95;;;3.30;;
40917;SDS011;26644;50.248;19.032;2022-09-09T07:53:27;5.82;;;3.47;;
40917;SDS011;26644;50.248;19.032;2022-09-09T07:56:29;6.63;;;3.45;;
40917;SDS011;26644;50.248;19.032;2022-09-09T07:59:32;5.15;;;3.35;;
40917;SDS011;26644;50.248;19.032;2022-09-09T08:02:34;7.38;;;3.88;;
40917;SDS011;26644;50.248;19.032;2022-09-09T08:05:36;8.13;;;3.05;;
40917;SDS011;26644;50.248;19.032;2022-09-09T08:08:41;4.43;;;2.33;;
40917;SDS011;26644;50.248;19.032;2022-09-09T08:11:43;4.30;;;2.50;;
40917;SDS011;26644;50.248;19.032;2022-09-09T08:14:46;2.85;;;2.42;;
40917;SDS011;26644;50.248;19.032;2022-09-09T08:17:50;4.82;;;2.30;;
40917;SDS011;26644;50.248;19.032;2022-09-09T08:20:51;3.70;;;2.50;;
40917;SDS011;26644;50.248;19.032;2022-09-09T08:23:55;3.85;;;2.50;;
40917;SDS011;26644;50.248;19.032;2022-09-09T08:26:59;8.88;;;2.22;;
40917;SDS011;26644;50.248;19.032;2022-09-09T08:30:02;7.40;;;2.15;;
40917;SDS011;26644;50.248;19.032;2022-09-09T08:33:05;4.28;;;2.10;;
40917;SDS011;26644;50.248;19.032;2022-09-09T08:36:09;3.78;;;2.40;;
40917;SDS011;26644;50.248;19.032;2022-09-09T08:39:14;4.65;;;2.30;;
40917;SDS011;26644;50.248;19.032;2022-09-09T08:42:24;3.90;;;2.40;;
40917;SDS011;26644;50.248;19.032;2022-09-09T08:45:35;4.90;;;2.28;;
40917;SDS011;26644;50.248;19.032;2022-09-09T08:48:51;5.40;;;2.30;;
40917;SDS011;26644;50.248;19.032;2022-09-09T08:51:58;5.10;;;2.80;;
40917;SDS011;26644;50.248;19.032;2022-09-09T08:55:05;4.80;;;2.50;;
40917;SDS011;26644;50.248;19.032;2022-09-09T08:58:23;5.38;;;2.83;;
40917;SDS011;26644;50.248;19.032;2022-09-09T09:01:37;4.22;;;2.63;;
40917;SDS011;26644;50.248;19.032;2022-09-09T09:04:56;3.70;;;2.17;;
40917;SDS011;26644;50.248;19.032;2022-09-09T09:08:08;4.68;;;2.10;;
40917;SDS011;26644;50.248;19.032;2022-09-09T09:11:19;5.10;;;2.25;;
40917;SDS011;26644;50.248;19.032;2022-09-09T09:14:21;3.60;;;2.28;;
40917;SDS011;26644;50.248;19.032;2022-09-09T09:17:25;6.85;;;2.60;;
40917;SDS011;26644;50.248;19.032;2022-09-09T09:20:33;2.65;;;2.10;;
40917;SDS011;26644;50.248;19.032;2022-09-09T09:23:44;2.83;;;2.10;;
40917;SDS011;26644;50.248;19.032;2022-09-09T09:26:53;3.40;;;2.00;;
40917;SDS011;26644;50.248;19.032;2022-09-09T09:29:56;3.50;;;1.67;;
40917;SDS011;26644;50.248;19.032;2022-09-09T09:32:59;3.28;;;1.77;;
40917;SDS011;26644;50.248;19.032;2022-09-09T09:36:05;3.75;;;1.50;;
40917;SDS011;26644;50.248;19.032;2022-09-09T09:39:09;3.10;;;1.33;;
40917;SDS011;26644;50.248;19.032;2022-09-09T09:42:17;1.40;;;1.20;;
40917;SDS011;26644;50.248;19.032;2022-09-09T09:45:26;4.15;;;1.73;;
40917;SDS011;26644;50.248;19.032;2022-09-09T09:48:32;3.05;;;1.40;;
40917;SDS011;26644;50.248;19.032;2022-09-09T09:51:34;2.45;;;1.40;;
40917;SDS011;26644;50.248;19.032;2022-09-09T09:54:37;3.05;;;1.23;;
40917;SDS011;26644;50.248;19.032;2022-09-09T09:57:44;4.82;;;3.47;;
40917;SDS011;26644;50.248;19.032;2022-09-09T10:00:48;1.55;;;1.27;;
40917;SDS011;26644;50.248;19.032;2022-09-09T10:03:52;4.47;;;2.47;;
40917;SDS011;26644;50.248;19.032;2022-09-09T10:06:55;6.70;;;2.08;;
40917;SDS011;26644;50.248;19.032;2022-09-09T10:09:57;7.43;;;1.75;;
40917;SDS011;26644;50.248;19.032;2022-09-09T10:13:02;4.80;;;1.80;;
40917;SDS011;26644;50.248;19.032;2022-09-09T10:16:15;2.05;;;1.35;;
40917;SDS011;26644;50.248;19.032;2022-09-09T10:19:28;2.55;;;1.88;;
40917;SDS011;26644;50.248;19.032;2022-09-09T10:22:33;2.63;;;1.80;;
40917;SDS011;26644;50.248;19.032;2022-09-09T10:25:38;1.73;;;1.60;;
40917;SDS011;26644;50.248;19.032;2022-09-09T10:29:02;7.78;;;4.82;;
40917;SDS011;26644;50.248;19.032;2022-09-09T10:32:30;3.30;;;1.75;;
40917;SDS011;26644;50.248;19.032;2022-09-09T10:35:39;7.45;;;4.80;;
40917;SDS011;26644;50.248;19.032;2022-09-09T10:38:52;2.72;;;2.03;;
40917;SDS011;26644;50.248;19.032;2022-09-09T10:42:00;3.97;;;1.67;;
40917;SDS011;26644;50.248;19.032;2022-09-09T10:45:13;4.95;;;1.90;;
40917;SDS011;26644;50.248;19.032;2022-09-09T10:51:51;3.70;;;2.25;;
40917;SDS011;26644;50.248;19.032;2022-09-09T10:55:06;2.83;;;1.92;;
40917;SDS011;26644;50.248;19.032;2022-09-09T10:58:13;1.48;;;1.33;;
40917;SDS011;26644;50.248;19.032;2022-09-09T11:01:22;4.10;;;2.53;;
40917;SDS011;26644;50.248;19.032;2022-09-09T11:04:28;2.60;;;1.63;;
40917;SDS011;26644;50.248;19.032;2022-09-09T11:07:40;2.70;;;1.98;;
40917;SDS011;26644;50.248;19.032;2022-09-09T11:10:48;1.63;;;1.40;;
40917;SDS011;26644;50.248;19.032;2022-09-09T11:13:55;2.67;;;1.50;;
40917;SDS011;26644;50.248;19.032;2022-09-09T11:17:06;3.70;;;2.08;;
40917;SDS011;26644;50.248;19.032;2022-09-09T11:20:13;3.72;;;2.00;;
40917;SDS011;26644;50.248;19.032;2022-09-09T11:23:16;2.45;;;1.33;;
40917;SDS011;26644;50.248;19.032;2022-09-09T11:26:25;2.80;;;1.15;;
40917;SDS011;26644;50.248;19.032;2022-09-09T11:29:42;1.85;;;1.10;;
40917;SDS011;26644;50.248;19.032;2022-09-09T11:36:42;3.70;;;1.20;;
40917;SDS011;26644;50.248;19.032;2022-09-09T11:39:58;3.17;;;1.42;;
40917;SDS011;26644;50.248;19.032;2022-09-09T11:43:17;2.58;;;1.60;;
40917;SDS011;26644;50.248;19.032;2022-09-09T11:46:31;3.78;;;1.50;;
40917;SDS011;26644;50.248;19.032;2022-09-09T11:49:41;2.72;;;1.73;;
40917;SDS011;26644;50.248;19.032;2022-09-09T11:52:44;3.03;;;1.38;;
40917;SDS011;26644;50.248;19.032;2022-09-09T11:55:47;2.20;;;0.85;;
40917;SDS011;26644;50.248;19.032;2022-09-09T11:58:53;5.60;;;1.17;;
40917;SDS011;26644;50.248;19.032;2022-09-09T12:01:58;3.90;;;1.48;;
40917;SDS011;26644;50.248;19.032;2022-09-09T12:05:04;3.20;;;1.52;;
40917;SDS011;26644;50.248;19.032;2022-09-09T12:08:08;4.00;;;1.30;;
40917;SDS011;26644;50.248;19.032;2022-09-09T12:11:12;2.08;;;1.30;;
40917;SDS011;26644;50.248;19.032;2022-09-09T12:14:34;1.30;;;1.20;;
40917;SDS011;26644;50.248;19.032;2022-09-09T12:17:41;2.40;;;1.10;;
40917;SDS011;26644;50.248;19.032;2022-09-09T12:20:50;2.35;;;1.20;;
40917;SDS011;26644;50.248;19.032;2022-09-09T12:23:59;3.15;;;1.80;;
40917;SDS011;26644;50.248;19.032;2022-09-09T12:27:07;6.45;;;1.50;;
40917;SDS011;26644;50.248;19.032;2022-09-09T12:30:17;1.33;;;1.20;;
40917;SDS011;26644;50.248;19.032;2022-09-09T12:33:20;2.05;;;1.50;;
40917;SDS011;26644;50.248;19.032;2022-09-09T12:36:27;1.92;;;1.42;;
40917;SDS011;26644;50.248;19.032;2022-09-09T12:39:32;4.28;;;1.40;;
40917;SDS011;26644;50.248;19.032;2022-09-09T12:42:39;2.67;;;1.83;;
40917;SDS011;26644;50.248;19.032;2022-09-09T12:45:41;3.63;;;1.63;;
40917;SDS011;26644;50.248;19.032;2022-09-09T12:48:44;2.50;;;1.40;;
40917;SDS011;26644;50.248;19.032;2022-09-09T12:51:47;3.90;;;1.52;;
40917;SDS011;26644;50.248;19.032;2022-09-09T12:54:50;3.55;;;1.48;;
40917;SDS011;26644;50.248;19.032;2022-09-09T12:57:54;2.78;;;1.30;;
40917;SDS011;26644;50.248;19.032;2022-09-09T13:00:56;3.13;;;1.60;;
40917;SDS011;26644;50.248;19.032;2022-09-09T13:03:58;2.35;;;1.38;;
40917;SDS011;26644;50.248;19.032;2022-09-09T13:07:06;4.25;;;1.40;;
40917;SDS011;26644;50.248;19.032;2022-09-09T13:10:12;2.28;;;1.40;;
40917;SDS011;26644;50.248;19.032;2022-09-09T13:13:16;3.42;;;2.42;;
40917;SDS011;26644;50.248;19.032;2022-09-09T13:16:23;4.32;;;2.00;;
40917;SDS011;26644;50.248;19.032;2022-09-09T13:19:32;4.93;;;2.85;;
40917;SDS011;26644;50.248;19.032;2022-09-09T13:22:38;1.25;;;1.15;;
40917;SDS011;26644;50.248;19.032;2022-09-09T13:25:41;3.17;;;1.10;;
40917;SDS011;26644;50.248;19.032;2022-09-09T13:28:54;1.05;;;0.70;;
40917;SDS011;26644;50.248;19.032;2022-09-09T13:32:03;2.60;;;1.13;;
40917;SDS011;26644;50.248;19.032;2022-09-09T13:38:25;2.58;;;1.15;;
40917;SDS011;26644;50.248;19.032;2022-09-09T13:41:31;6.50;;;1.20;;
40917;SDS011;26644;50.248;19.032;2022-09-09T13:44:35;8.32;;;1.30;;
40917;SDS011;26644;50.248;19.032;2022-09-09T13:47:41;1.48;;;0.90;;
40917;SDS011;26644;50.248;19.032;2022-09-09T13:50:43;0.98;;;0.80;;
40917;SDS011;26644;50.248;19.032;2022-09-09T13:53:57;1.30;;;0.77;;
40917;SDS011;26644;50.248;19.032;2022-09-09T13:57:00;2.40;;;1.30;;
40917;SDS011;26644;50.248;19.032;2022-09-09T14:00:03;3.35;;;1.67;;
40917;SDS011;26644;50.248;19.032;2022-09-09T14:03:06;2.80;;;1.48;;
40917;SDS011;26644;50.248;19.032;2022-09-09T14:06:08;2.80;;;1.27;;
40917;SDS011;26644;50.248;19.032;2022-09-09T14:09:13;5.60;;;1.10;;
40917;SDS011;26644;50.248;19.032;2022-09-09T14:12:16;0.90;;;0.75;;
40917;SDS011;26644;50.248;19.032;2022-09-09T14:15:18;2.03;;;0.88;;
40917;SDS011;26644;50.248;19.032;2022-09-09T14:18:20;2.30;;;1.10;;
40917;SDS011;26644;50.248;19.032;2022-09-09T14:21:23;1.40;;;1.00;;
40917;SDS011;26644;50.248;19.032;2022-09-09T14:24:27;1.83;;;0.85;;
40917;SDS011;26644;50.248;19.032;2022-09-09T14:27:29;1.13;;;0.85;;
40917;SDS011;26644;50.248;19.032;2022-09-09T14:30:31;3.13;;;1.70;;
40917;SDS011;26644;50.248;19.032;2022-09-09T14:33:33;1.40;;;0.88;;
40917;SDS011;26644;50.248;19.032;2022-09-09T14:36:36;1.90;;;0.88;;
40917;SDS011;26644;50.248;19.032;2022-09-09T14:39:40;1.52;;;0.85;;
40917;SDS011;26644;50.248;19.032;2022-09-09T14:42:44;2.42;;;1.10;;
40917;SDS011;26644;50.248;19.032;2022-09-09T14:45:46;5.60;;;1.55;;
40917;SDS011;26644;50.248;19.032;2022-09-09T14:48:48;1.13;;;0.90;;
40917;SDS011;26644;50.248;19.032;2022-09-09T14:51:50;3.28;;;1.00;;
40917;SDS011;26644;50.248;19.032;2022-09-09T14:54:53;0.28;;;0.28;;
40917;SDS011;26644;50.248;19.032;2022-09-09T14:57:55;102.25;;;21.50;;
40917;SDS011;26644;50.248;19.032;2022-09-09T15:01:01;2.53;;;1.35;;
40917;SDS011;26644;50.248;19.032;2022-09-09T15:04:04;2.83;;;1.42;;
40917;SDS011;26644;50.248;19.032;2022-09-09T15:07:08;4.32;;;1.73;;
40917;SDS011;26644;50.248;19.032;2022-09-09T15:10:12;4.20;;;2.10;;
40917;SDS011;26644;50.248;19.032;2022-09-09T15:13:14;3.33;;;1.92;;
40917;SDS011;26644;50.248;19.032;2022-09-09T15:16:17;2.83;;;1.90;;
40917;SDS011;26644;50.248;19.032;2022-09-09T15:19:20;5.20;;;1.85;;
40917;SDS011;26644;50.248;19.032;2022-09-09T15:22:22;3.83;;;1.58;;
40917;SDS011;26644;50.248;19.032;2022-09-09T15:25:26;3.30;;;1.83;;
40917;SDS011;26644;50.248;19.032;2022-09-09T15:28:28;3.53;;;1.63;;
40917;SDS011;26644;50.248;19.032;2022-09-09T15:31:30;3.80;;;1.60;;
40917;SDS011;26644;50.248;19.032;2022-09-09T15:34:32;4.65;;;1.58;;
40917;SDS011;26644;50.248;19.032;2022-09-09T15:37:34;2.80;;;1.55;;
40917;SDS011;26644;50.248;19.032;2022-09-09T15:40:37;1.85;;;1.38;;
40917;SDS011;26644;50.248;19.032;2022-09-09T15:43:42;6.50;;;2.70;;
40917;SDS011;26644;50.248;19.032;2022-09-09T15:46:46;4.18;;;2.53;;
40917;SDS011;26644;50.248;19.032;2022-09-09T15:49:51;5.30;;;2.40;;
40917;SDS011;26644;50.248;19.032;2022-09-09T15:52:53;6.05;;;2.53;;
40917;SDS011;26644;50.248;19.032;2022-09-09T15:55:56;2.65;;;2.10;;
40917;SDS011;26644;50.248;19.032;2022-09-09T15:58:58;9.80;;;5.05;;
40917;SDS011;26644;50.248;19.032;2022-09-09T16:02:01;14.95;;;7.28;;
40917;SDS011;26644;50.248;19.032;2022-09-09T16:05:03;6.53;;;2.60;;
40917;SDS011;26644;50.248;19.032;2022-09-09T16:08:06;6.82;;;3.58;;
40917;SDS011;26644;50.248;19.032;2022-09-09T16:11:10;10.65;;;4.95;;
40917;SDS011;26644;50.248;19.032;2022-09-09T16:14:14;3.53;;;2.40;;
40917;SDS011;26644;50.248;19.032;2022-09-09T16:17:18;3.42;;;1.88;;
40917;SDS011;26644;50.248;19.032;2022-09-09T16:20:20;4.55;;;1.83;;
40917;SDS011;26644;50.248;19.032;2022-09-09T16:23:22;14.38;;;2.42;;
40917;SDS011;26644;50.248;19.032;2022-09-09T16:26:26;6.10;;;3.20;;
40917;SDS011;26644;50.248;19.032;2022-09-09T16:29:28;7.28;;;3.10;;
40917;SDS011;26644;50.248;19.032;2022-09-09T16:32:30;7.43;;;4.22;;
40917;SDS011;26644;50.248;19.032;2022-09-09T16:35:35;9.63;;;4.68;;
40917;SDS011;26644;50.248;19.032;2022-09-09T16:38:38;7.68;;;5.22;;
40917;SDS011;26644;50.248;19.032;2022-09-09T16:41:42;11.25;;;5.72;;
40917;SDS011;26644;50.248;19.032;2022-09-09T16:44:45;16.85;;;5.72;;
40917;SDS011;26644;50.248;19.032;2022-09-09T16:47:47;15.15;;;5.53;;
40917;SDS011;26644;50.248;19.032;2022-09-09T16:50:49;10.75;;;6.82;;
40917;SDS011;26644;50.248;19.032;2022-09-09T16:53:51;14.20;;;6.25;;
40917;SDS011;26644;50.248;19.032;2022-09-09T16:56:55;11.68;;;5.88;;
40917;SDS011;26644;50.248;19.032;2022-09-09T16:59:56;8.57;;;4.22;;
40917;SDS011;26644;50.248;19.032;2022-09-09T17:02:59;3.60;;;2.40;;
40917;SDS011;26644;50.248;19.032;2022-09-09T17:06:01;4.30;;;2.53;;
40917;SDS011;26644;50.248;19.032;2022-09-09T17:09:03;6.55;;;2.60;;
40917;SDS011;26644;50.248;19.032;2022-09-09T17:12:08;4.25;;;2.63;;
40917;SDS011;26644;50.248;19.032;2022-09-09T17:15:12;4.38;;;2.72;;
40917;SDS011;26644;50.248;19.032;2022-09-09T17:18:14;4.38;;;2.30;;
40917;SDS011;26644;50.248;19.032;2022-09-09T17:21:17;5.07;;;2.80;;
40917;SDS011;26644;50.248;19.032;2022-09-09T17:24:21;7.82;;;3.00;;
40917;SDS011;26644;50.248;19.032;2022-09-09T17:27:26;8.63;;;3.92;;
40917;SDS011;26644;50.248;19.032;2022-09-09T17:30:29;5.22;;;2.78;;
40917;SDS011;26644;50.248;19.032;2022-09-09T17:33:35;9.20;;;3.50;;
40917;SDS011;26644;50.248;19.032;2022-09-09T17:36:38;9.68;;;3.95;;
40917;SDS011;26644;50.248;19.032;2022-09-09T17:39:40;6.80;;;3.47;;
40917;SDS011;26644;50.248;19.032;2022-09-09T17:42:43;4.55;;;3.22;;
40917;SDS011;26644;50.248;19.032;2022-09-09T17:45:46;6.75;;;3.47;;
40917;SDS011;26644;50.248;19.032;2022-09-09T17:48:49;5.05;;;3.13;;
40917;SDS011;26644;50.248;19.032;2022-09-09T17:51:53;8.10;;;3.20;;
40917;SDS011;26644;50.248;19.032;2022-09-09T17:54:56;6.68;;;3.20;;
40917;SDS011;26644;50.248;19.032;2022-09-09T17:57:59;7.03;;;3.20;;
40917;SDS011;26644;50.248;19.032;2022-09-09T18:01:02;6.70;;;3.33;;
40917;SDS011;26644;50.248;19.032;2022-09-09T18:04:06;11.30;;;4.38;;
40917;SDS011;26644;50.248;19.032;2022-09-09T18:07:09;6.10;;;2.50;;
40917;SDS011;26644;50.248;19.032;2022-09-09T18:10:11;7.88;;;3.67;;
40917;SDS011;26644;50.248;19.032;2022-09-09T18:13:14;8.88;;;3.60;;
40917;SDS011;26644;50.248;19.032;2022-09-09T18:16:16;5.10;;;2.88;;
40917;SDS011;26644;50.248;19.032;2022-09-09T18:19:19;4.20;;;2.42;;
40917;SDS011;26644;50.248;19.032;2022-09-09T18:22:22;4.75;;;2.15;;
40917;SDS011;26644;50.248;19.032;2022-09-09T18:25:25;4.20;;;2.35;;
40917;SDS011;26644;50.248;19.032;2022-09-09T18:28:28;3.25;;;1.70;;
40917;SDS011;26644;50.248;19.032;2022-09-09T18:31:30;2.45;;;1.90;;